Mustafa Dayi — TCZF2 — position and weather

sailwx.info

Track history (hours):
 
Tides and Currents Weather Stations Pressure Air Temp Water Temp Dewpoint Dewpoint Depression Visibility Wind Speed Wind Dir Waves Ship Positions

Mustafa Dayi

Last reported at 2015-May-04 22:33 UTC. Time now 2015-May-07 04:37 UTC.
Position N 39°51' E 025°52'.

Length 183 m; draft 8 m.

Type: Ship (hazmat cat A). MMSI: 271042433.

Date/timePositionNaut miles runAvg speedWind from/ knotsBaromVisibWave heightAir tempDewpointWater temp
2015-May-04 22:33N 39°51' E 025°52'1613.3
2015-May-04 21:20N 39°35' E 025°48'  
2015-Apr-30 18:26N 33°55' E 035°32'0 0.0
2015-Apr-30 15:12N 33°55' E 035°32'0 0.2
2015-Apr-30 14:33N 33°55' E 035°32'1 1.4
2015-Apr-30 13:33N 33°56' E 035°32'7511.5
2015-Apr-30 07:03N 33°11' E 034°20'1313.8
2015-Apr-30 06:07N 33°01' E 034°10'2113.8
2015-Apr-30 04:33N 32°45' E 033°52'1313.3
2015-Apr-30 03:33N 32°36' E 033°41'1413.2
2015-Apr-30 02:28N 32°26' E 033°29'1413.1
2015-Apr-30 01:26N 32°16' E 033°18'1213.2
2015-Apr-30 00:33N 32°07' E 033°09'1413.6
2015-Apr-29 23:33N 31°57' E 032°58'1313.5
2015-Apr-29 22:33N 31°48' E 032°47'1413.7
2015-Apr-29 21:33N 31°40' E 032°33'1212.4
2015-Apr-29 20:33N 31°32' E 032°23'1312.8
2015-Apr-29 19:33N 31°19' E 032°22'5 5.3
2015-Apr-29 18:32N 31°15' E 032°18'0 0.0
2015-Apr-29 17:21N 31°15' E 032°18'0 0.0
2015-Apr-29 16:33N 31°15' E 032°18'0 0.0
2015-Apr-29 15:19N 31°15' E 032°18'0 0.0
2015-Apr-29 14:33N 31°15' E 032°18'6 1.0
2015-Apr-29 08:22N 31°20' E 032°22'3 2.8
2015-Apr-29 07:28N 31°22' E 032°20'2 2.3
2015-Apr-29 06:27N 31°21' E 032°17'2 2.2
2015-Apr-29 05:33N 31°23' E 032°16'1010.0
2015-Apr-29 04:33N 31°32' E 032°12'1413.7
2015-Apr-29 03:33N 31°42' E 032°01'1313.2
2015-Apr-29 02:33N 31°48' E 031°46'1413.9
2015-Apr-29 01:33N 31°50' E 031°30'4213.8
2015-Apr-28 22:32N 31°56' E 030°42'1313.4
2015-Apr-28 21:33N 31°52' E 030°27'1813.6
2015-Apr-28 20:11N 31°41' E 030°09'1213.5
2015-Apr-28 19:18N 31°33' E 029°59'24 0.7
2015-Apr-27 06:32N 31°11' E 029°47'3 3.0
2015-Apr-27 05:33N 31°14' E 029°46'1 0.0
2015-Apr-26 12:29N 31°14' E 029°45'0 0.0
2015-Apr-26 11:16N 31°14' E 029°45'0 0.1
2015-Apr-26 08:18N 31°14' E 029°45'0 0.0
2015-Apr-26 00:33N 31°14' E 029°45'0 0.0
2015-Apr-25 23:32N 31°14' E 029°45'0 0.0
2015-Apr-25 19:31N 31°14' E 029°45'0 0.0
2015-Apr-25 18:29N 31°14' E 029°45'0 0.0
2015-Apr-25 17:33N 31°14' E 029°45'0 0.0
2015-Apr-25 11:04N 31°14' E 029°45'0 0.0
2015-Apr-25 10:31N 31°14' E 029°45'  
Track history (hours):
 
Tides and Currents Weather Stations Pressure Air Temp Water Temp Dewpoint Dewpoint Depression Visibility Wind Speed Wind Dir Waves Ship Positions

Mustafa Dayi

Last reported at 2015-May-04 22:33 UTC. Time now 2015-May-07 04:37 UTC.
Position N 39°51' E 025°52'.

Length 183 m; draft 8 m.

Type: Ship (hazmat cat A). MMSI: 271042433.

Date/timePositionNaut miles runAvg speedWind from/ knotsBaromVisibWave heightAir tempDewpointWater temp
2015-May-04 22:33N 39°51' E 025°52'1613.3
2015-May-04 21:20N 39°35' E 025°48'  
2015-Apr-30 18:26N 33°55' E 035°32'0 0.0
2015-Apr-30 15:12N 33°55' E 035°32'0 0.2
2015-Apr-30 14:33N 33°55' E 035°32'1 1.4
2015-Apr-30 13:33N 33°56' E 035°32'7511.5
2015-Apr-30 07:03N 33°11' E 034°20'1313.8
2015-Apr-30 06:07N 33°01' E 034°10'2113.8
2015-Apr-30 04:33N 32°45' E 033°52'1313.3
2015-Apr-30 03:33N 32°36' E 033°41'1413.2
2015-Apr-30 02:28N 32°26' E 033°29'1413.1
2015-Apr-30 01:26N 32°16' E 033°18'1213.2
2015-Apr-30 00:33N 32°07' E 033°09'1413.6
2015-Apr-29 23:33N 31°57' E 032°58'1313.5
2015-Apr-29 22:33N 31°48' E 032°47'1413.7
2015-Apr-29 21:33N 31°40' E 032°33'1212.4
2015-Apr-29 20:33N 31°32' E 032°23'1312.8
2015-Apr-29 19:33N 31°19' E 032°22'5 5.3
2015-Apr-29 18:32N 31°15' E 032°18'0 0.0
2015-Apr-29 17:21N 31°15' E 032°18'0 0.0
2015-Apr-29 16:33N 31°15' E 032°18'0 0.0
2015-Apr-29 15:19N 31°15' E 032°18'0 0.0
2015-Apr-29 14:33N 31°15' E 032°18'6 1.0
2015-Apr-29 08:22N 31°20' E 032°22'3 2.8
2015-Apr-29 07:28N 31°22' E 032°20'2 2.3
2015-Apr-29 06:27N 31°21' E 032°17'2 2.2
2015-Apr-29 05:33N 31°23' E 032°16'1010.0
2015-Apr-29 04:33N 31°32' E 032°12'1413.7
2015-Apr-29 03:33N 31°42' E 032°01'1313.2
2015-Apr-29 02:33N 31°48' E 031°46'1413.9
2015-Apr-29 01:33N 31°50' E 031°30'4213.8
2015-Apr-28 22:32N 31°56' E 030°42'1313.4
2015-Apr-28 21:33N 31°52' E 030°27'1813.6
2015-Apr-28 20:11N 31°41' E 030°09'1213.5
2015-Apr-28 19:18N 31°33' E 029°59'24 0.7
2015-Apr-27 06:32N 31°11' E 029°47'3 3.0
2015-Apr-27 05:33N 31°14' E 029°46'1 0.0
2015-Apr-26 12:29N 31°14' E 029°45'0 0.0
2015-Apr-26 11:16N 31°14' E 029°45'0 0.1
2015-Apr-26 08:18N 31°14' E 029°45'0 0.0
2015-Apr-26 00:33N 31°14' E 029°45'0 0.0
2015-Apr-25 23:32N 31°14' E 029°45'0 0.0
2015-Apr-25 19:31N 31°14' E 029°45'0 0.0
2015-Apr-25 18:29N 31°14' E 029°45'0 0.0
2015-Apr-25 17:33N 31°14' E 029°45'0 0.0
2015-Apr-25 11:04N 31°14' E 029°45'0 0.0
2015-Apr-25 10:31N 31°14' E 029°45'  

Dump ship's entire track history